sensor_id;sensor_type;location;lat;lon;timestamp;P1;durP1;ratioP1;P2;durP2;ratioP2
20482;SDS011;10400;53.198;6.592;2024-03-23T00:51:56;31.83;;;6.18;;
20482;SDS011;10400;53.198;6.592;2024-03-23T00:54:22;26.83;;;6.00;;
20482;SDS011;10400;53.198;6.592;2024-03-23T00:56:47;35.13;;;5.68;;
20482;SDS011;10400;53.198;6.592;2024-03-23T00:59:13;35.15;;;7.10;;
20482;SDS011;10400;53.198;6.592;2024-03-23T01:01:39;30.90;;;5.10;;
20482;SDS011;10400;53.198;6.592;2024-03-23T01:04:04;28.60;;;6.45;;
20482;SDS011;10400;53.198;6.592;2024-03-23T01:06:30;30.52;;;6.25;;
20482;SDS011;10400;53.198;6.592;2024-03-23T01:08:56;31.48;;;6.40;;
20482;SDS011;10400;53.198;6.592;2024-03-23T01:11:21;26.33;;;5.75;;
20482;SDS011;10400;53.198;6.592;2024-03-23T01:13:47;33.67;;;6.10;;
20482;SDS011;10400;53.198;6.592;2024-03-23T01:16:12;24.45;;;5.90;;
20482;SDS011;10400;53.198;6.592;2024-03-23T01:18:38;27.67;;;5.60;;
20482;SDS011;10400;53.198;6.592;2024-03-23T01:21:04;31.65;;;6.13;;
20482;SDS011;10400;53.198;6.592;2024-03-23T01:23:29;24.83;;;5.38;;
20482;SDS011;10400;53.198;6.592;2024-03-23T01:25:55;22.88;;;6.15;;
20482;SDS011;10400;53.198;6.592;2024-03-23T01:28:21;24.80;;;5.25;;
20482;SDS011;10400;53.198;6.592;2024-03-23T01:30:47;25.65;;;5.35;;
20482;SDS011;10400;53.198;6.592;2024-03-23T01:33:13;26.95;;;5.65;;
20482;SDS011;10400;53.198;6.592;2024-03-23T01:35:39;28.27;;;5.60;;
20482;SDS011;10400;53.198;6.592;2024-03-23T01:38:04;36.95;;;5.60;;
20482;SDS011;10400;53.198;6.592;2024-03-23T01:40:31;29.95;;;5.65;;
20482;SDS011;10400;53.198;6.592;2024-03-23T01:43:07;22.17;;;5.50;;
20482;SDS011;10400;53.198;6.592;2024-03-23T01:45:34;21.10;;;5.38;;
20482;SDS011;10400;53.198;6.592;2024-03-23T01:48:00;26.63;;;5.65;;
20482;SDS011;10400;53.198;6.592;2024-03-23T01:50:27;30.45;;;5.85;;
20482;SDS011;10400;53.198;6.592;2024-03-23T01:52:53;32.53;;;4.93;;
20482;SDS011;10400;53.198;6.592;2024-03-23T01:55:19;24.50;;;5.80;;
20482;SDS011;10400;53.198;6.592;2024-03-23T01:57:45;27.25;;;5.63;;
20482;SDS011;10400;53.198;6.592;2024-03-23T02:00:11;27.10;;;6.47;;
20482;SDS011;10400;53.198;6.592;2024-03-23T02:02:44;33.50;;;5.38;;
20482;SDS011;10400;53.198;6.592;2024-03-23T02:05:13;28.00;;;5.82;;
20482;SDS011;10400;53.198;6.592;2024-03-23T02:07:39;24.23;;;5.68;;
20482;SDS011;10400;53.198;6.592;2024-03-23T02:10:06;28.50;;;5.60;;
20482;SDS011;10400;53.198;6.592;2024-03-23T02:12:32;27.33;;;5.32;;
20482;SDS011;10400;53.198;6.592;2024-03-23T02:14:58;30.08;;;5.85;;
20482;SDS011;10400;53.198;6.592;2024-03-23T02:17:24;35.13;;;5.30;;
20482;SDS011;10400;53.198;6.592;2024-03-23T02:19:50;29.15;;;5.70;;
20482;SDS011;10400;53.198;6.592;2024-03-23T02:22:15;31.75;;;5.60;;
20482;SDS011;10400;53.198;6.592;2024-03-23T02:24:41;26.77;;;5.22;;
20482;SDS011;10400;53.198;6.592;2024-03-23T02:27:07;28.80;;;5.25;;
20482;SDS011;10400;53.198;6.592;2024-03-23T02:29:33;32.13;;;5.72;;
20482;SDS011;10400;53.198;6.592;2024-03-23T02:31:59;20.40;;;4.78;;
20482;SDS011;10400;53.198;6.592;2024-03-23T02:34:24;21.80;;;5.38;;
20482;SDS011;10400;53.198;6.592;2024-03-23T02:36:50;23.13;;;5.55;;
20482;SDS011;10400;53.198;6.592;2024-03-23T02:39:16;21.35;;;4.40;;
20482;SDS011;10400;53.198;6.592;2024-03-23T02:41:41;29.83;;;5.25;;
20482;SDS011;10400;53.198;6.592;2024-03-23T02:44:07;24.27;;;4.93;;
20482;SDS011;10400;53.198;6.592;2024-03-23T02:46:33;30.52;;;5.13;;
20482;SDS011;10400;53.198;6.592;2024-03-23T02:48:58;31.83;;;5.53;;
20482;SDS011;10400;53.198;6.592;2024-03-23T02:51:24;27.48;;;4.93;;
20482;SDS011;10400;53.198;6.592;2024-03-23T02:53:49;23.75;;;4.70;;
20482;SDS011;10400;53.198;6.592;2024-03-23T02:56:16;25.02;;;5.50;;
20482;SDS011;10400;53.198;6.592;2024-03-23T02:58:44;29.25;;;4.78;;
20482;SDS011;10400;53.198;6.592;2024-03-23T03:01:10;26.65;;;4.90;;
20482;SDS011;10400;53.198;6.592;2024-03-23T03:03:36;28.23;;;4.80;;
20482;SDS011;10400;53.198;6.592;2024-03-23T03:06:01;33.60;;;5.47;;
20482;SDS011;10400;53.198;6.592;2024-03-23T03:08:27;23.42;;;5.20;;
20482;SDS011;10400;53.198;6.592;2024-03-23T03:10:53;25.27;;;4.63;;
20482;SDS011;10400;53.198;6.592;2024-03-23T03:13:18;20.55;;;4.15;;
20482;SDS011;10400;53.198;6.592;2024-03-23T03:15:44;17.08;;;4.40;;
20482;SDS011;10400;53.198;6.592;2024-03-23T03:18:09;25.02;;;5.30;;
20482;SDS011;10400;53.198;6.592;2024-03-23T03:20:39;23.88;;;5.40;;
20482;SDS011;10400;53.198;6.592;2024-03-23T03:23:05;22.42;;;4.05;;
20482;SDS011;10400;53.198;6.592;2024-03-23T03:25:31;22.45;;;4.57;;
20482;SDS011;10400;53.198;6.592;2024-03-23T03:27:57;20.08;;;4.55;;
20482;SDS011;10400;53.198;6.592;2024-03-23T03:30:22;22.20;;;4.25;;
20482;SDS011;10400;53.198;6.592;2024-03-23T03:32:49;21.48;;;4.60;;
20482;SDS011;10400;53.198;6.592;2024-03-23T03:35:14;20.20;;;5.25;;
20482;SDS011;10400;53.198;6.592;2024-03-23T03:37:40;21.80;;;4.10;;
20482;SDS011;10400;53.198;6.592;2024-03-23T03:40:06;26.38;;;4.32;;
20482;SDS011;10400;53.198;6.592;2024-03-23T03:42:34;24.13;;;4.97;;
20482;SDS011;10400;53.198;6.592;2024-03-23T03:44:59;28.50;;;4.53;;
20482;SDS011;10400;53.198;6.592;2024-03-23T03:47:25;21.63;;;4.05;;
20482;SDS011;10400;53.198;6.592;2024-03-23T03:49:51;22.83;;;4.00;;
20482;SDS011;10400;53.198;6.592;2024-03-23T03:52:17;21.42;;;4.72;;
20482;SDS011;10400;53.198;6.592;2024-03-23T03:54:42;18.80;;;4.03;;
20482;SDS011;10400;53.198;6.592;2024-03-23T03:57:08;24.00;;;4.20;;
20482;SDS011;10400;53.198;6.592;2024-03-23T03:59:33;18.67;;;3.92;;
20482;SDS011;10400;53.198;6.592;2024-03-23T04:01:59;17.33;;;3.97;;
20482;SDS011;10400;53.198;6.592;2024-03-23T04:04:25;20.63;;;3.85;;
20482;SDS011;10400;53.198;6.592;2024-03-23T04:06:57;22.52;;;3.97;;
20482;SDS011;10400;53.198;6.592;2024-03-23T04:09:27;20.90;;;4.22;;
20482;SDS011;10400;53.198;6.592;2024-03-23T04:11:52;19.58;;;4.57;;
20482;SDS011;10400;53.198;6.592;2024-03-23T04:14:18;25.30;;;4.30;;
20482;SDS011;10400;53.198;6.592;2024-03-23T04:16:44;16.25;;;3.80;;
20482;SDS011;10400;53.198;6.592;2024-03-23T04:19:09;22.70;;;4.15;;
20482;SDS011;10400;53.198;6.592;2024-03-23T04:21:35;16.73;;;4.03;;
20482;SDS011;10400;53.198;6.592;2024-03-23T04:24:02;20.42;;;3.78;;
20482;SDS011;10400;53.198;6.592;2024-03-23T04:26:28;24.00;;;3.78;;
20482;SDS011;10400;53.198;6.592;2024-03-23T04:28:53;20.80;;;3.83;;
20482;SDS011;10400;53.198;6.592;2024-03-23T04:31:19;16.55;;;3.83;;
20482;SDS011;10400;53.198;6.592;2024-03-23T04:33:45;20.52;;;3.65;;
20482;SDS011;10400;53.198;6.592;2024-03-23T04:36:10;18.90;;;3.83;;
20482;SDS011;10400;53.198;6.592;2024-03-23T04:38:36;20.88;;;4.00;;
20482;SDS011;10400;53.198;6.592;2024-03-23T04:41:02;20.92;;;4.28;;
20482;SDS011;10400;53.198;6.592;2024-03-23T04:43:27;20.42;;;4.20;;
20482;SDS011;10400;53.198;6.592;2024-03-23T04:45:53;26.65;;;3.92;;
20482;SDS011;10400;53.198;6.592;2024-03-23T04:48:20;18.70;;;4.22;;
20482;SDS011;10400;53.198;6.592;2024-03-23T04:50:47;23.80;;;3.75;;
20482;SDS011;10400;53.198;6.592;2024-03-23T04:53:14;20.15;;;3.47;;
20482;SDS011;10400;53.198;6.592;2024-03-23T04:55:41;18.70;;;3.97;;
20482;SDS011;10400;53.198;6.592;2024-03-23T04:58:07;23.25;;;3.50;;
20482;SDS011;10400;53.198;6.592;2024-03-23T05:00:32;17.60;;;3.67;;
20482;SDS011;10400;53.198;6.592;2024-03-23T05:02:58;20.83;;;4.22;;
20482;SDS011;10400;53.198;6.592;2024-03-23T05:05:23;15.85;;;3.95;;
20482;SDS011;10400;53.198;6.592;2024-03-23T05:07:49;16.65;;;3.65;;
20482;SDS011;10400;53.198;6.592;2024-03-23T05:10:15;13.48;;;3.25;;
20482;SDS011;10400;53.198;6.592;2024-03-23T05:12:41;11.93;;;3.20;;
20482;SDS011;10400;53.198;6.592;2024-03-23T05:15:07;17.55;;;3.50;;
20482;SDS011;10400;53.198;6.592;2024-03-23T05:17:32;20.27;;;4.10;;
20482;SDS011;10400;53.198;6.592;2024-03-23T05:19:59;21.15;;;4.20;;
20482;SDS011;10400;53.198;6.592;2024-03-23T05:22:25;19.67;;;3.58;;
20482;SDS011;10400;53.198;6.592;2024-03-23T05:24:52;25.08;;;3.97;;
20482;SDS011;10400;53.198;6.592;2024-03-23T05:27:18;22.77;;;4.07;;
20482;SDS011;10400;53.198;6.592;2024-03-23T05:29:43;19.23;;;3.58;;
20482;SDS011;10400;53.198;6.592;2024-03-23T05:32:09;21.00;;;3.60;;
20482;SDS011;10400;53.198;6.592;2024-03-23T05:34:35;17.58;;;3.80;;
20482;SDS011;10400;53.198;6.592;2024-03-23T05:37:00;21.13;;;3.30;;
20482;SDS011;10400;53.198;6.592;2024-03-23T05:39:26;22.17;;;3.47;;
20482;SDS011;10400;53.198;6.592;2024-03-23T05:41:52;18.60;;;3.70;;
20482;SDS011;10400;53.198;6.592;2024-03-23T05:44:18;19.95;;;3.13;;
20482;SDS011;10400;53.198;6.592;2024-03-23T05:46:43;19.65;;;3.88;;
20482;SDS011;10400;53.198;6.592;2024-03-23T05:49:13;18.77;;;3.50;;
20482;SDS011;10400;53.198;6.592;2024-03-23T05:51:39;20.42;;;2.78;;
20482;SDS011;10400;53.198;6.592;2024-03-23T05:54:04;20.08;;;3.15;;
20482;SDS011;10400;53.198;6.592;2024-03-23T05:56:30;15.45;;;3.30;;
20482;SDS011;10400;53.198;6.592;2024-03-23T05:58:56;13.25;;;3.03;;
20482;SDS011;10400;53.198;6.592;2024-03-23T06:01:22;19.30;;;3.20;;
20482;SDS011;10400;53.198;6.592;2024-03-23T06:03:48;17.42;;;3.03;;
20482;SDS011;10400;53.198;6.592;2024-03-23T06:06:13;14.25;;;3.03;;
20482;SDS011;10400;53.198;6.592;2024-03-23T06:08:39;21.17;;;2.88;;
20482;SDS011;10400;53.198;6.592;2024-03-23T06:11:05;19.10;;;3.45;;
20482;SDS011;10400;53.198;6.592;2024-03-23T06:13:31;12.52;;;2.70;;
20482;SDS011;10400;53.198;6.592;2024-03-23T06:15:58;10.45;;;1.85;;
20482;SDS011;10400;53.198;6.592;2024-03-23T06:18:25;11.90;;;1.90;;
20482;SDS011;10400;53.198;6.592;2024-03-23T06:20:51;7.30;;;1.83;;
20482;SDS011;10400;53.198;6.592;2024-03-23T06:23:17;9.70;;;1.77;;
20482;SDS011;10400;53.198;6.592;2024-03-23T06:25:45;9.25;;;2.03;;
20482;SDS011;10400;53.198;6.592;2024-03-23T06:28:10;7.97;;;2.00;;
20482;SDS011;10400;53.198;6.592;2024-03-23T06:30:36;10.25;;;2.28;;
20482;SDS011;10400;53.198;6.592;2024-03-23T06:33:02;5.68;;;1.60;;
20482;SDS011;10400;53.198;6.592;2024-03-23T06:35:27;7.50;;;1.70;;
20482;SDS011;10400;53.198;6.592;2024-03-23T06:37:53;7.03;;;1.48;;
20482;SDS011;10400;53.198;6.592;2024-03-23T06:40:19;9.80;;;1.85;;
20482;SDS011;10400;53.198;6.592;2024-03-23T06:42:44;9.10;;;1.85;;
20482;SDS011;10400;53.198;6.592;2024-03-23T06:45:10;9.00;;;1.92;;
20482;SDS011;10400;53.198;6.592;2024-03-23T06:47:35;8.98;;;1.75;;
20482;SDS011;10400;53.198;6.592;2024-03-23T06:50:02;10.73;;;2.13;;
20482;SDS011;10400;53.198;6.592;2024-03-23T06:52:28;10.00;;;2.03;;
20482;SDS011;10400;53.198;6.592;2024-03-23T06:54:55;11.07;;;2.40;;
20482;SDS011;10400;53.198;6.592;2024-03-23T06:57:20;9.27;;;2.00;;
20482;SDS011;10400;53.198;6.592;2024-03-23T06:59:46;12.95;;;2.38;;
20482;SDS011;10400;53.198;6.592;2024-03-23T07:02:12;7.65;;;1.77;;
20482;SDS011;10400;53.198;6.592;2024-03-23T07:04:38;7.97;;;1.58;;
20482;SDS011;10400;53.198;6.592;2024-03-23T07:07:06;7.05;;;1.45;;
20482;SDS011;10400;53.198;6.592;2024-03-23T07:09:32;13.23;;;2.33;;
20482;SDS011;10400;53.198;6.592;2024-03-23T07:11:58;11.55;;;1.80;;
20482;SDS011;10400;53.198;6.592;2024-03-23T07:14:23;13.23;;;2.38;;
20482;SDS011;10400;53.198;6.592;2024-03-23T07:16:49;9.90;;;1.80;;
20482;SDS011;10400;53.198;6.592;2024-03-23T07:19:16;12.20;;;2.00;;
20482;SDS011;10400;53.198;6.592;2024-03-23T07:21:42;7.43;;;1.83;;
20482;SDS011;10400;53.198;6.592;2024-03-23T07:24:08;13.75;;;2.70;;
20482;SDS011;10400;53.198;6.592;2024-03-23T07:26:34;10.35;;;1.75;;
20482;SDS011;10400;53.198;6.592;2024-03-23T07:29:00;10.27;;;2.00;;
20482;SDS011;10400;53.198;6.592;2024-03-23T07:31:26;5.93;;;2.08;;
20482;SDS011;10400;53.198;6.592;2024-03-23T07:33:52;8.88;;;1.63;;
20482;SDS011;10400;53.198;6.592;2024-03-23T07:36:19;8.82;;;1.50;;
20482;SDS011;10400;53.198;6.592;2024-03-23T07:38:44;7.03;;;1.80;;
20482;SDS011;10400;53.198;6.592;2024-03-23T07:41:11;8.15;;;2.10;;
20482;SDS011;10400;53.198;6.592;2024-03-23T07:43:39;7.97;;;1.42;;
20482;SDS011;10400;53.198;6.592;2024-03-23T07:46:05;7.05;;;1.58;;
20482;SDS011;10400;53.198;6.592;2024-03-23T07:48:31;8.13;;;1.60;;
20482;SDS011;10400;53.198;6.592;2024-03-23T07:50:58;9.35;;;1.50;;
20482;SDS011;10400;53.198;6.592;2024-03-23T07:53:24;9.35;;;1.58;;
20482;SDS011;10400;53.198;6.592;2024-03-23T07:55:56;7.88;;;1.55;;
20482;SDS011;10400;53.198;6.592;2024-03-23T07:58:23;6.72;;;1.20;;
20482;SDS011;10400;53.198;6.592;2024-03-23T08:00:49;8.35;;;1.65;;
20482;SDS011;10400;53.198;6.592;2024-03-23T08:03:15;4.63;;;1.30;;
20482;SDS011;10400;53.198;6.592;2024-03-23T08:05:41;8.63;;;1.77;;
20482;SDS011;10400;53.198;6.592;2024-03-23T08:08:07;8.95;;;1.60;;
20482;SDS011;10400;53.198;6.592;2024-03-23T08:10:32;6.72;;;1.60;;
20482;SDS011;10400;53.198;6.592;2024-03-23T08:12:58;7.38;;;1.40;;
20482;SDS011;10400;53.198;6.592;2024-03-23T08:15:24;6.55;;;1.70;;
20482;SDS011;10400;53.198;6.592;2024-03-23T08:17:51;5.75;;;1.88;;
20482;SDS011;10400;53.198;6.592;2024-03-23T08:20:18;5.47;;;1.90;;
20482;SDS011;10400;53.198;6.592;2024-03-23T08:22:43;6.25;;;1.45;;
20482;SDS011;10400;53.198;6.592;2024-03-23T08:25:09;11.98;;;1.70;;
20482;SDS011;10400;53.198;6.592;2024-03-23T08:27:35;8.55;;;1.70;;
20482;SDS011;10400;53.198;6.592;2024-03-23T08:30:00;8.38;;;1.80;;
20482;SDS011;10400;53.198;6.592;2024-03-23T08:32:26;5.35;;;1.33;;
20482;SDS011;10400;53.198;6.592;2024-03-23T08:34:51;4.70;;;1.80;;
20482;SDS011;10400;53.198;6.592;2024-03-23T08:37:17;10.57;;;2.20;;
20482;SDS011;10400;53.198;6.592;2024-03-23T08:39:43;12.20;;;2.20;;
20482;SDS011;10400;53.198;6.592;2024-03-23T08:42:09;8.88;;;1.80;;
20482;SDS011;10400;53.198;6.592;2024-03-23T08:44:34;10.23;;;2.03;;
20482;SDS011;10400;53.198;6.592;2024-03-23T08:47:00;9.13;;;1.90;;
20482;SDS011;10400;53.198;6.592;2024-03-23T08:49:26;8.57;;;2.13;;
20482;SDS011;10400;53.198;6.592;2024-03-23T08:51:52;9.90;;;2.17;;
20482;SDS011;10400;53.198;6.592;2024-03-23T08:54:19;10.77;;;2.20;;
20482;SDS011;10400;53.198;6.592;2024-03-23T08:56:45;8.98;;;2.50;;
20482;SDS011;10400;53.198;6.592;2024-03-23T08:59:11;11.85;;;2.67;;
20482;SDS011;10400;53.198;6.592;2024-03-23T09:01:36;7.45;;;1.92;;
20482;SDS011;10400;53.198;6.592;2024-03-23T09:04:03;13.38;;;2.60;;
20482;SDS011;10400;53.198;6.592;2024-03-23T09:06:29;10.70;;;2.47;;
20482;SDS011;10400;53.198;6.592;2024-03-23T09:08:55;12.13;;;2.25;;
20482;SDS011;10400;53.198;6.592;2024-03-23T09:11:20;9.43;;;2.17;;
20482;SDS011;10400;53.198;6.592;2024-03-23T09:13:46;15.93;;;2.90;;
20482;SDS011;10400;53.198;6.592;2024-03-23T09:16:11;11.88;;;2.25;;
20482;SDS011;10400;53.198;6.592;2024-03-23T09:18:37;10.32;;;2.10;;
20482;SDS011;10400;53.198;6.592;2024-03-23T09:21:04;10.48;;;2.30;;
20482;SDS011;10400;53.198;6.592;2024-03-23T09:23:35;12.60;;;2.58;;
20482;SDS011;10400;53.198;6.592;2024-03-23T09:26:04;12.93;;;2.10;;
20482;SDS011;10400;53.198;6.592;2024-03-23T09:28:30;10.65;;;2.35;;
20482;SDS011;10400;53.198;6.592;2024-03-23T09:31:01;11.40;;;2.38;;
20482;SDS011;10400;53.198;6.592;2024-03-23T09:33:30;12.00;;;2.63;;
20482;SDS011;10400;53.198;6.592;2024-03-23T09:35:56;17.92;;;2.75;;
20482;SDS011;10400;53.198;6.592;2024-03-23T09:38:25;6.13;;;1.90;;
20482;SDS011;10400;53.198;6.592;2024-03-23T09:40:52;14.82;;;2.42;;
20482;SDS011;10400;53.198;6.592;2024-03-23T09:43:18;10.40;;;2.05;;
20482;SDS011;10400;53.198;6.592;2024-03-23T09:45:44;7.75;;;1.67;;
20482;SDS011;10400;53.198;6.592;2024-03-23T09:48:10;9.18;;;1.63;;
20482;SDS011;10400;53.198;6.592;2024-03-23T09:50:37;8.15;;;1.80;;
20482;SDS011;10400;53.198;6.592;2024-03-23T09:53:07;9.02;;;1.73;;
20482;SDS011;10400;53.198;6.592;2024-03-23T09:55:33;9.65;;;2.65;;
20482;SDS011;10400;53.198;6.592;2024-03-23T09:58:00;11.15;;;1.73;;
20482;SDS011;10400;53.198;6.592;2024-03-23T10:00:27;15.25;;;2.30;;
20482;SDS011;10400;53.198;6.592;2024-03-23T10:02:55;11.75;;;2.35;;
20482;SDS011;10400;53.198;6.592;2024-03-23T10:05:21;8.85;;;2.40;;
20482;SDS011;10400;53.198;6.592;2024-03-23T10:07:48;8.05;;;1.20;;
20482;SDS011;10400;53.198;6.592;2024-03-23T10:10:17;3.60;;;1.40;;
20482;SDS011;10400;53.198;6.592;2024-03-23T10:12:47;9.15;;;1.27;;
20482;SDS011;10400;53.198;6.592;2024-03-23T10:15:22;9.40;;;1.38;;
20482;SDS011;10400;53.198;6.592;2024-03-23T10:17:49;5.15;;;1.48;;
20482;SDS011;10400;53.198;6.592;2024-03-23T10:20:19;14.48;;;1.92;;
20482;SDS011;10400;53.198;6.592;2024-03-23T10:22:49;8.93;;;1.83;;
20482;SDS011;10400;53.198;6.592;2024-03-23T10:25:16;6.57;;;1.63;;
20482;SDS011;10400;53.198;6.592;2024-03-23T10:27:42;12.25;;;1.80;;
20482;SDS011;10400;53.198;6.592;2024-03-23T10:32:37;8.93;;;1.77;;
20482;SDS011;10400;53.198;6.592;2024-03-23T10:35:21;9.75;;;1.70;;
20482;SDS011;10400;53.198;6.592;2024-03-23T10:37:47;11.57;;;2.22;;
20482;SDS011;10400;53.198;6.592;2024-03-23T10:40:16;11.68;;;2.28;;
20482;SDS011;10400;53.198;6.592;2024-03-23T10:42:46;12.88;;;2.33;;
20482;SDS011;10400;53.198;6.592;2024-03-23T10:45:12;9.10;;;1.75;;
20482;SDS011;10400;53.198;6.592;2024-03-23T10:47:38;10.23;;;1.60;;
20482;SDS011;10400;53.198;6.592;2024-03-23T10:50:06;9.48;;;1.40;;
20482;SDS011;10400;53.198;6.592;2024-03-23T10:52:35;9.88;;;1.52;;
20482;SDS011;10400;53.198;6.592;2024-03-23T10:55:02;5.32;;;1.17;;
20482;SDS011;10400;53.198;6.592;2024-03-23T10:57:36;5.97;;;1.65;;
20482;SDS011;10400;53.198;6.592;2024-03-23T11:00:10;7.70;;;1.88;;
20482;SDS011;10400;53.198;6.592;2024-03-23T11:02:37;7.18;;;1.70;;
20482;SDS011;10400;53.198;6.592;2024-03-23T11:05:16;7.10;;;1.60;;
20482;SDS011;10400;53.198;6.592;2024-03-23T11:07:51;9.35;;;1.80;;
20482;SDS011;10400;53.198;6.592;2024-03-23T11:10:28;10.70;;;1.83;;
20482;SDS011;10400;53.198;6.592;2024-03-23T11:12:55;7.07;;;2.33;;
20482;SDS011;10400;53.198;6.592;2024-03-23T11:15:21;15.13;;;2.50;;
20482;SDS011;10400;53.198;6.592;2024-03-23T11:20:33;11.95;;;2.70;;
20482;SDS011;10400;53.198;6.592;2024-03-23T11:22:59;10.43;;;2.60;;
20482;SDS011;10400;53.198;6.592;2024-03-23T11:25:26;6.80;;;2.80;;
20482;SDS011;10400;53.198;6.592;2024-03-23T11:27:58;10.05;;;2.47;;
20482;SDS011;10400;53.198;6.592;2024-03-23T11:30:36;7.72;;;2.00;;
20482;SDS011;10400;53.198;6.592;2024-03-23T11:33:03;32.85;;;17.75;;
20482;SDS011;10400;53.198;6.592;2024-03-23T11:35:30;10.32;;;2.67;;
20482;SDS011;10400;53.198;6.592;2024-03-23T11:40:33;9.43;;;2.00;;
20482;SDS011;10400;53.198;6.592;2024-03-23T11:42:59;14.77;;;4.38;;
20482;SDS011;10400;53.198;6.592;2024-03-23T11:45:36;16.35;;;8.63;;
20482;SDS011;10400;53.198;6.592;2024-03-23T11:48:15;11.27;;;2.85;;
20482;SDS011;10400;53.198;6.592;2024-03-23T11:50:43;5.53;;;1.77;;
20482;SDS011;10400;53.198;6.592;2024-03-23T11:53:17;10.05;;;2.22;;
20482;SDS011;10400;53.198;6.592;2024-03-23T11:55:52;9.07;;;1.88;;
20482;SDS011;10400;53.198;6.592;2024-03-23T11:58:21;7.88;;;1.55;;
20482;SDS011;10400;53.198;6.592;2024-03-23T12:00:51;11.80;;;1.83;;
20482;SDS011;10400;53.198;6.592;2024-03-23T12:03:18;10.50;;;2.50;;
20482;SDS011;10400;53.198;6.592;2024-03-23T12:05:50;8.60;;;2.45;;
20482;SDS011;10400;53.198;6.592;2024-03-23T12:11:15;11.70;;;2.65;;
20482;SDS011;10400;53.198;6.592;2024-03-23T12:13:43;8.32;;;2.08;;
20482;SDS011;10400;53.198;6.592;2024-03-23T12:18:47;9.07;;;1.92;;
20482;SDS011;10400;53.198;6.592;2024-03-23T12:21:14;10.18;;;1.73;;
20482;SDS011;10400;53.198;6.592;2024-03-23T12:23:40;7.18;;;1.30;;
20482;SDS011;10400;53.198;6.592;2024-03-23T12:26:07;8.95;;;2.20;;
20482;SDS011;10400;53.198;6.592;2024-03-23T12:28:33;9.10;;;1.90;;
20482;SDS011;10400;53.198;6.592;2024-03-23T12:31:00;10.95;;;2.42;;
20482;SDS011;10400;53.198;6.592;2024-03-23T12:33:25;4.47;;;1.33;;
20482;SDS011;10400;53.198;6.592;2024-03-23T12:35:51;8.32;;;1.90;;
20482;SDS011;10400;53.198;6.592;2024-03-23T12:38:17;11.95;;;2.15;;
20482;SDS011;10400;53.198;6.592;2024-03-23T12:40:49;7.53;;;1.63;;
20482;SDS011;10400;53.198;6.592;2024-03-23T12:43:15;7.30;;;1.77;;
20482;SDS011;10400;53.198;6.592;2024-03-23T12:45:41;9.18;;;1.92;;
20482;SDS011;10400;53.198;6.592;2024-03-23T12:48:11;10.85;;;1.83;;
20482;SDS011;10400;53.198;6.592;2024-03-23T12:50:37;7.47;;;1.48;;
20482;SDS011;10400;53.198;6.592;2024-03-23T12:53:03;10.23;;;2.50;;
20482;SDS011;10400;53.198;6.592;2024-03-23T12:55:29;6.78;;;1.38;;
20482;SDS011;10400;53.198;6.592;2024-03-23T12:57:54;5.70;;;1.45;;
20482;SDS011;10400;53.198;6.592;2024-03-23T13:00:20;6.88;;;1.95;;
20482;SDS011;10400;53.198;6.592;2024-03-23T13:02:45;6.22;;;1.20;;
20482;SDS011;10400;53.198;6.592;2024-03-23T13:05:11;6.50;;;1.33;;
20482;SDS011;10400;53.198;6.592;2024-03-23T13:07:37;9.35;;;2.15;;
20482;SDS011;10400;53.198;6.592;2024-03-23T13:10:03;8.02;;;1.63;;
20482;SDS011;10400;53.198;6.592;2024-03-23T13:12:31;7.28;;;1.70;;
20482;SDS011;10400;53.198;6.592;2024-03-23T13:14:57;10.48;;;1.98;;
20482;SDS011;10400;53.198;6.592;2024-03-23T13:17:24;13.25;;;2.28;;
20482;SDS011;10400;53.198;6.592;2024-03-23T13:19:51;8.60;;;2.20;;
20482;SDS011;10400;53.198;6.592;2024-03-23T13:22:18;9.85;;;2.03;;
20482;SDS011;10400;53.198;6.592;2024-03-23T13:24:43;12.48;;;2.42;;
20482;SDS011;10400;53.198;6.592;2024-03-23T13:27:09;9.45;;;1.63;;
20482;SDS011;10400;53.198;6.592;2024-03-23T13:29:35;12.68;;;1.95;;
20482;SDS011;10400;53.198;6.592;2024-03-23T13:32:02;8.63;;;2.33;;
20482;SDS011;10400;53.198;6.592;2024-03-23T13:34:28;5.82;;;1.48;;
20482;SDS011;10400;53.198;6.592;2024-03-23T13:36:54;10.82;;;1.70;;
20482;SDS011;10400;53.198;6.592;2024-03-23T13:39:23;7.55;;;1.58;;
20482;SDS011;10400;53.198;6.592;2024-03-23T13:41:49;8.43;;;1.75;;
20482;SDS011;10400;53.198;6.592;2024-03-23T13:44:14;8.52;;;1.85;;
20482;SDS011;10400;53.198;6.592;2024-03-23T13:46:41;10.73;;;1.73;;
20482;SDS011;10400;53.198;6.592;2024-03-23T13:49:16;7.95;;;2.00;;
20482;SDS011;10400;53.198;6.592;2024-03-23T13:51:54;7.18;;;1.50;;
20482;SDS011;10400;53.198;6.592;2024-03-23T13:54:21;5.93;;;1.20;;
20482;SDS011;10400;53.198;6.592;2024-03-23T13:56:53;8.20;;;1.67;;
20482;SDS011;10400;53.198;6.592;2024-03-23T13:59:20;11.45;;;1.52;;
20482;SDS011;10400;53.198;6.592;2024-03-23T14:01:48;8.02;;;1.40;;
20482;SDS011;10400;53.198;6.592;2024-03-23T14:04:14;7.32;;;1.73;;
20482;SDS011;10400;53.198;6.592;2024-03-23T14:06:41;6.30;;;1.52;;
20482;SDS011;10400;53.198;6.592;2024-03-23T14:09:10;10.05;;;1.80;;
20482;SDS011;10400;53.198;6.592;2024-03-23T14:11:36;11.23;;;1.80;;
20482;SDS011;10400;53.198;6.592;2024-03-23T14:14:02;11.25;;;1.98;;
20482;SDS011;10400;53.198;6.592;2024-03-23T14:16:28;12.02;;;2.17;;
20482;SDS011;10400;53.198;6.592;2024-03-23T14:18:58;9.13;;;1.63;;
20482;SDS011;10400;53.198;6.592;2024-03-23T14:21:24;9.32;;;1.80;;
20482;SDS011;10400;53.198;6.592;2024-03-23T14:23:49;5.40;;;1.38;;
20482;SDS011;10400;53.198;6.592;2024-03-23T14:26:15;7.45;;;2.10;;
20482;SDS011;10400;53.198;6.592;2024-03-23T14:28:40;11.70;;;1.67;;
20482;SDS011;10400;53.198;6.592;2024-03-23T14:31:06;6.20;;;1.30;;
20482;SDS011;10400;53.198;6.592;2024-03-23T14:33:36;9.35;;;1.77;;
20482;SDS011;10400;53.198;6.592;2024-03-23T14:36:02;12.98;;;2.47;;
20482;SDS011;10400;53.198;6.592;2024-03-23T14:38:28;9.48;;;2.13;;
20482;SDS011;10400;53.198;6.592;2024-03-23T14:40:57;14.02;;;2.33;;
20482;SDS011;10400;53.198;6.592;2024-03-23T14:43:24;9.40;;;2.20;;
20482;SDS011;10400;53.198;6.592;2024-03-23T14:48:41;10.93;;;2.10;;
20482;SDS011;10400;53.198;6.592;2024-03-23T14:51:09;12.10;;;2.45;;
20482;SDS011;10400;53.198;6.592;2024-03-23T14:53:36;10.43;;;2.17;;
20482;SDS011;10400;53.198;6.592;2024-03-23T14:56:06;14.35;;;2.55;;
20482;SDS011;10400;53.198;6.592;2024-03-23T14:58:33;14.70;;;2.70;;
20482;SDS011;10400;53.198;6.592;2024-03-23T15:03:27;14.93;;;3.05;;
20482;SDS011;10400;53.198;6.592;2024-03-23T15:05:57;10.20;;;2.20;;
20482;SDS011;10400;53.198;6.592;2024-03-23T15:08:24;11.38;;;1.98;;
20482;SDS011;10400;53.198;6.592;2024-03-23T15:10:50;11.82;;;2.00;;
20482;SDS011;10400;53.198;6.592;2024-03-23T15:13:16;8.25;;;1.15;;
20482;SDS011;10400;53.198;6.592;2024-03-23T15:15:42;8.35;;;2.35;;
20482;SDS011;10400;53.198;6.592;2024-03-23T15:18:13;15.20;;;8.00;;
20482;SDS011;10400;53.198;6.592;2024-03-23T15:20:53;8.65;;;2.55;;
20482;SDS011;10400;53.198;6.592;2024-03-23T15:23:32;15.48;;;5.35;;
20482;SDS011;10400;53.198;6.592;2024-03-23T15:25:59;35.95;;;17.35;;
20482;SDS011;10400;53.198;6.592;2024-03-23T15:28:26;24.42;;;9.32;;
20482;SDS011;10400;53.198;6.592;2024-03-23T15:31:03;16.17;;;4.90;;
20482;SDS011;10400;53.198;6.592;2024-03-23T15:33:32;17.13;;;6.35;;
20482;SDS011;10400;53.198;6.592;2024-03-23T15:36:02;11.65;;;2.15;;
20482;SDS011;10400;53.198;6.592;2024-03-23T15:38:28;12.77;;;2.13;;
20482;SDS011;10400;53.198;6.592;2024-03-23T15:40:57;14.38;;;5.43;;
20482;SDS011;10400;53.198;6.592;2024-03-23T15:43:23;11.20;;;2.38;;
20482;SDS011;10400;53.198;6.592;2024-03-23T15:45:58;7.65;;;1.75;;